createdAt,value
2023-02-18T00:01:21.420Z,0.50
2023-02-18T00:04:08.546Z,0.60
2023-02-18T00:06:55.160Z,0.60
2023-02-18T00:09:41.750Z,0.60
2023-02-18T00:12:28.647Z,0.60
2023-02-18T00:15:16.663Z,0.50
2023-02-18T00:18:03.422Z,0.57
2023-02-18T00:20:50.063Z,0.40
2023-02-18T00:23:37.182Z,0.50
2023-02-18T00:26:24.158Z,0.60
2023-02-18T00:29:11.068Z,0.50
2023-02-18T00:31:59.188Z,0.50
2023-02-18T00:34:46.532Z,0.43
2023-02-18T00:37:35.276Z,0.47
2023-02-18T00:40:22.490Z,0.50
2023-02-18T00:43:09.863Z,0.43
2023-02-18T00:45:56.665Z,0.60
2023-02-18T00:48:45.570Z,0.70
2023-02-18T00:51:32.830Z,0.70
2023-02-18T00:54:19.326Z,0.40
2023-02-18T00:57:06.175Z,0.33
2023-02-18T00:59:52.991Z,0.53
2023-02-18T01:02:39.771Z,0.40
2023-02-18T01:05:28.874Z,0.43
2023-02-18T01:08:15.730Z,0.40
2023-02-18T01:11:03.262Z,0.50
2023-02-18T01:13:50.476Z,0.60
2023-02-18T01:16:37.093Z,0.43
2023-02-18T01:19:24.007Z,0.30
2023-02-18T01:22:12.368Z,0.43
2023-02-18T01:24:59.051Z,0.37
2023-02-18T01:27:45.895Z,0.30
2023-02-18T01:30:33.320Z,0.30
2023-02-18T01:33:20.543Z,0.40
2023-02-18T01:36:08.487Z,0.50
2023-02-18T01:38:56.576Z,0.30
2023-02-18T01:41:43.423Z,0.60
2023-02-18T01:44:31.142Z,0.30
2023-02-18T01:47:19.597Z,0.40
2023-02-18T01:50:08.015Z,0.50
2023-02-18T01:52:55.157Z,0.30
2023-02-18T01:55:43.674Z,0.40
2023-02-18T01:58:30.556Z,0.30
2023-02-18T02:01:17.488Z,0.50
2023-02-18T02:04:04.469Z,0.40
2023-02-18T02:06:51.165Z,0.50
2023-02-18T02:09:40.673Z,0.50
2023-02-18T02:12:45.019Z,0.50
2023-02-18T02:15:39.257Z,0.50
2023-02-18T02:18:42.357Z,0.40
2023-02-18T02:21:59.137Z,0.50
2023-02-18T02:25:11.332Z,0.50
2023-02-18T02:28:30.434Z,0.50
2023-02-18T02:31:43.825Z,0.57
2023-02-18T02:34:48.956Z,0.53
2023-02-18T02:37:43.113Z,0.50
2023-02-18T02:40:35.158Z,0.60
2023-02-18T02:43:29.872Z,0.40
2023-02-18T02:46:22.666Z,0.50
2023-02-18T02:49:20.622Z,0.50
2023-02-18T02:52:14.930Z,0.50
2023-02-18T02:55:01.715Z,0.53
2023-02-18T02:57:51.525Z,0.73
2023-02-18T03:00:48.700Z,0.60
2023-02-18T03:04:05.546Z,0.70
2023-02-18T03:07:23.470Z,0.70
2023-02-18T03:10:26.220Z,0.70
2023-02-18T03:13:24.700Z,0.50
2023-02-18T03:16:22.172Z,1.03
2023-02-18T03:19:14.920Z,0.67
2023-02-18T03:22:05.126Z,0.87
2023-02-18T03:24:54.282Z,0.80
2023-02-18T03:27:47.106Z,0.60
2023-02-18T03:30:41.485Z,0.80
2023-02-18T03:33:32.396Z,0.70
2023-02-18T03:36:21.371Z,0.50
2023-02-18T03:39:13.141Z,0.93
2023-02-18T03:42:00.161Z,0.67
2023-02-18T03:44:48.378Z,0.60
2023-02-18T03:47:35.860Z,0.70
2023-02-18T03:50:22.558Z,0.77
2023-02-18T03:53:09.809Z,1.00
2023-02-18T03:55:56.697Z,1.00
2023-02-18T03:58:43.930Z,0.80
2023-02-18T04:01:32.292Z,1.30
2023-02-18T04:04:19.554Z,0.80
2023-02-18T04:07:06.728Z,0.90
2023-02-18T04:09:53.529Z,0.90
2023-02-18T04:12:40.555Z,0.90
2023-02-18T04:15:27.611Z,0.70
2023-02-18T04:18:15.957Z,0.80
2023-02-18T04:21:03.087Z,1.00
2023-02-18T04:23:50.266Z,1.10
2023-02-18T04:26:36.904Z,0.80
2023-02-18T04:29:23.638Z,0.77
2023-02-18T04:32:10.645Z,1.20
2023-02-18T04:34:58.724Z,0.80
2023-02-18T04:37:45.691Z,0.80
2023-02-18T04:40:32.610Z,0.90
2023-02-18T04:43:19.336Z,0.90
2023-02-18T04:46:08.671Z,0.70
2023-02-18T04:48:55.941Z,0.60
2023-02-18T04:51:44.535Z,0.73
2023-02-18T04:54:31.818Z,0.80
2023-02-18T04:57:18.604Z,0.70
2023-02-18T05:00:07.166Z,0.67
2023-02-18T05:02:53.926Z,0.50
2023-02-18T05:05:41.912Z,0.50
2023-02-18T05:08:30.257Z,0.80
2023-02-18T05:11:17.217Z,0.63
2023-02-18T05:14:04.123Z,0.70
2023-02-18T05:16:51.299Z,0.60
2023-02-18T05:19:38.287Z,0.50
2023-02-18T05:22:25.391Z,0.60
2023-02-18T05:25:13.526Z,0.50
2023-02-18T05:28:00.817Z,0.80
2023-02-18T05:30:47.721Z,0.50
2023-02-18T05:33:34.780Z,0.40
2023-02-18T05:36:22.068Z,0.60
2023-02-18T05:39:09.547Z,0.50
2023-02-18T05:41:59.164Z,0.43
2023-02-18T05:44:46.342Z,0.30
2023-02-18T05:47:33.637Z,0.40
2023-02-18T05:50:20.504Z,0.33
2023-02-18T05:53:07.221Z,0.60
2023-02-18T05:55:54.341Z,0.47
2023-02-18T05:58:42.660Z,0.50
2023-02-18T06:01:30.033Z,0.50
2023-02-18T06:04:17.596Z,0.30
2023-02-18T06:07:04.616Z,0.30
2023-02-18T06:09:51.613Z,0.40
2023-02-18T06:12:38.627Z,0.37
2023-02-18T06:15:27.310Z,0.40
2023-02-18T06:18:14.440Z,0.37
2023-02-18T06:21:01.327Z,0.50
2023-02-18T06:23:48.688Z,0.40
2023-02-18T06:26:35.846Z,0.60
2023-02-18T06:29:22.861Z,0.60
2023-02-18T06:32:11.523Z,0.50
2023-02-18T06:34:58.534Z,0.50
2023-02-18T06:37:46.015Z,0.60
2023-02-18T06:40:33.095Z,0.57
2023-02-18T06:43:20.486Z,0.60
2023-02-18T06:46:08.676Z,0.60
2023-02-18T06:48:57.142Z,0.50
2023-02-18T06:51:44.649Z,0.50
2023-02-18T06:54:32.878Z,0.60
2023-02-18T06:57:23.418Z,0.77
2023-02-18T07:00:12.370Z,0.77
2023-02-18T07:03:00.380Z,0.50
2023-02-18T07:05:50.643Z,0.63
2023-02-18T07:08:39.212Z,0.50
2023-02-18T07:11:26.813Z,0.70
2023-02-18T07:14:14.324Z,0.87
2023-02-18T07:17:01.653Z,0.50
2023-02-18T07:19:49.460Z,0.80
2023-02-18T07:22:38.044Z,0.70
2023-02-18T07:25:26.231Z,0.80
2023-02-18T07:28:13.224Z,0.70
2023-02-18T07:31:00.158Z,0.80
2023-02-18T07:33:47.168Z,0.60
2023-02-18T07:36:34.543Z,0.80
2023-02-18T07:39:22.735Z,0.77
2023-02-18T07:42:10.112Z,0.70
2023-02-18T07:44:57.404Z,1.27
2023-02-18T07:47:45.658Z,0.80
2023-02-18T07:50:35.282Z,0.60
2023-02-18T07:53:22.437Z,0.60
2023-02-18T07:56:10.943Z,0.70
2023-02-18T07:58:58.077Z,0.67
2023-02-18T08:01:45.220Z,0.60
2023-02-18T08:04:32.609Z,0.60
2023-02-18T08:07:22.343Z,0.67
2023-02-18T08:10:10.114Z,0.57
2023-02-18T08:12:58.191Z,0.50
2023-02-18T08:15:45.327Z,0.70
2023-02-18T08:18:32.248Z,0.73
2023-02-18T08:21:20.477Z,0.60
2023-02-18T08:24:08.678Z,0.50
2023-02-18T08:27:00.728Z,0.53
2023-02-18T08:29:49.750Z,0.40
2023-02-18T08:32:37.278Z,0.60
2023-02-18T08:35:24.415Z,0.57
2023-02-18T08:38:11.633Z,0.50
2023-02-18T08:41:04.024Z,0.83
2023-02-18T08:43:51.251Z,0.50
2023-02-18T08:46:39.961Z,0.63
2023-02-18T08:49:26.864Z,0.60
2023-02-18T08:52:14.456Z,0.60
2023-02-18T08:55:01.642Z,0.50
2023-02-18T08:57:48.857Z,0.70
2023-02-18T09:00:36.553Z,0.60
2023-02-18T09:03:24.927Z,0.50
2023-02-18T09:06:12.216Z,0.60
2023-02-18T09:08:59.051Z,0.50
2023-02-18T09:11:46.404Z,0.60
2023-02-18T09:14:33.640Z,0.40
2023-02-18T09:17:20.737Z,0.60
2023-02-18T09:20:10.589Z,0.67
2023-02-18T09:22:57.865Z,0.43
2023-02-18T09:25:45.117Z,0.50
2023-02-18T09:28:31.921Z,0.50
2023-02-18T09:31:20.993Z,0.60
2023-02-18T09:34:08.438Z,0.70
2023-02-18T09:36:57.330Z,0.50
2023-02-18T09:39:44.451Z,0.63
2023-02-18T09:42:34.382Z,0.60
2023-02-18T09:45:22.314Z,0.67
2023-02-18T09:48:11.405Z,0.70
2023-02-18T09:50:58.380Z,0.60
2023-02-18T09:53:47.823Z,0.67
2023-02-18T09:56:38.578Z,0.85
2023-02-18T09:59:28.470Z,0.60
2023-02-18T10:02:17.581Z,0.70
2023-02-18T10:05:05.611Z,0.60
2023-02-18T10:07:56.258Z,0.77
2023-02-18T10:10:47.252Z,0.60
2023-02-18T10:13:35.393Z,0.50
2023-02-18T10:16:25.394Z,0.40
2023-02-18T10:19:23.617Z,0.60
2023-02-18T10:22:15.128Z,0.70
2023-02-18T10:25:04.723Z,0.70
2023-02-18T10:27:54.724Z,0.70
2023-02-18T10:30:44.394Z,0.60
2023-02-18T10:33:36.875Z,0.80
2023-02-18T10:36:27.648Z,0.73
2023-02-18T10:39:33.878Z,0.50
2023-02-18T10:42:34.726Z,0.60
2023-02-18T10:45:34.851Z,0.90
2023-02-18T10:48:45.489Z,0.40
2023-02-18T10:51:35.520Z,0.40
2023-02-18T10:54:26.250Z,0.70
2023-02-18T10:57:19.743Z,0.53
2023-02-18T11:00:19.004Z,0.50
2023-02-18T11:03:17.514Z,0.50
2023-02-18T11:06:04.455Z,0.70
2023-02-18T11:08:52.213Z,0.60
2023-02-18T11:11:40.770Z,0.47
2023-02-18T11:14:39.382Z,0.60
2023-02-18T11:17:31.168Z,0.63
2023-02-18T11:20:32.679Z,0.60
2023-02-18T11:23:22.145Z,0.70
2023-02-18T11:26:14.498Z,0.60
2023-02-18T11:29:05.196Z,0.90
2023-02-18T11:31:54.872Z,0.40
2023-02-18T11:34:45.684Z,0.70
2023-02-18T11:37:35.440Z,0.70
2023-02-18T11:40:25.943Z,0.50
2023-02-18T11:43:15.779Z,0.77
2023-02-18T11:46:14.870Z,0.47
2023-02-18T11:49:22.783Z,0.70
2023-02-18T11:52:18.973Z,0.80
2023-02-18T11:55:15.270Z,0.57
2023-02-18T11:58:05.274Z,0.60
2023-02-18T12:00:55.049Z,0.80
2023-02-18T12:03:48.113Z,0.90
2023-02-18T12:06:40.017Z,1.13
2023-02-18T12:09:32.159Z,0.60
2023-02-18T12:12:27.684Z,0.70
2023-02-18T12:15:20.280Z,0.50
2023-02-18T12:18:30.497Z,0.70
2023-02-18T12:21:34.931Z,0.80
2023-02-18T12:24:46.560Z,0.67
2023-02-18T12:27:42.877Z,0.70
2023-02-18T12:30:45.129Z,0.70
2023-02-18T12:33:43.278Z,1.00
2023-02-18T12:36:44.742Z,0.80
2023-02-18T12:39:42.064Z,0.67
2023-02-18T12:42:43.717Z,0.70
2023-02-18T12:45:56.550Z,0.80
2023-02-18T12:49:00.240Z,0.50
2023-02-18T12:52:06.475Z,0.73
2023-02-18T12:55:35.976Z,0.40
2023-02-18T12:58:37.897Z,0.70
2023-02-18T13:01:45.104Z,0.60
2023-02-18T13:04:50.961Z,0.50
2023-02-18T13:08:00.360Z,0.80
2023-02-18T13:11:02.995Z,0.77
2023-02-18T13:13:59.958Z,0.80
2023-02-18T13:16:52.097Z,0.90
2023-02-18T13:19:46.290Z,0.60
2023-02-18T13:22:34.503Z,0.70
2023-02-18T13:25:22.452Z,0.80
2023-02-18T13:28:23.100Z,0.80
2023-02-18T13:31:24.096Z,0.87
2023-02-18T13:34:21.117Z,0.67
2023-02-18T13:37:17.668Z,0.87
2023-02-18T13:40:05.787Z,0.90
2023-02-18T13:42:55.465Z,0.80
2023-02-18T13:45:43.226Z,0.83
2023-02-18T13:48:32.435Z,0.70
2023-02-18T13:51:30.706Z,1.03
2023-02-18T13:54:23.562Z,0.93
2023-02-18T13:57:16.950Z,0.90
2023-02-18T14:00:07.411Z,1.20
2023-02-18T14:02:59.570Z,0.97
2023-02-18T14:05:48.179Z,1.10
2023-02-18T14:08:36.785Z,1.00
2023-02-18T14:11:42.234Z,0.80
2023-02-18T14:14:41.671Z,0.90
2023-02-18T14:17:38.749Z,1.20
2023-02-18T14:20:52.393Z,1.00
2023-02-18T14:23:45.496Z,1.13
2023-02-18T14:26:35.646Z,1.10
2023-02-18T14:29:29.937Z,1.17
2023-02-18T14:32:20.815Z,1.30
2023-02-18T14:35:24.740Z,1.40
2023-02-18T14:38:38.605Z,1.00
2023-02-18T14:41:48.521Z,0.97
2023-02-18T14:44:49.564Z,0.87
2023-02-18T14:47:52.274Z,1.30
2023-02-18T14:50:42.814Z,0.90
2023-02-18T14:53:31.484Z,1.17
2023-02-18T14:56:21.866Z,1.43
2023-02-18T14:59:09.961Z,1.40
2023-02-18T15:01:57.564Z,1.27
2023-02-18T15:04:46.054Z,1.30
2023-02-18T15:07:33.180Z,1.20
2023-02-18T15:10:22.807Z,1.57
2023-02-18T15:13:15.934Z,1.20
2023-02-18T15:16:06.012Z,1.10
2023-02-18T15:18:57.403Z,0.90
2023-02-18T15:21:46.950Z,0.87
2023-02-18T15:24:35.498Z,1.17
2023-02-18T15:27:26.132Z,0.97
2023-02-18T15:30:22.428Z,0.80
2023-02-18T15:33:32.210Z,1.10
2023-02-18T15:36:19.279Z,0.70
2023-02-18T15:39:06.356Z,1.07
2023-02-18T15:41:56.069Z,0.80
2023-02-18T15:44:49.270Z,0.90
2023-02-18T15:47:36.183Z,1.00
2023-02-18T15:50:28.964Z,1.10
2023-02-18T15:53:18.236Z,1.00
2023-02-18T15:56:08.878Z,0.83
2023-02-18T15:59:09.807Z,1.10
2023-02-18T16:02:10.759Z,1.30
2023-02-18T16:05:02.769Z,0.93
2023-02-18T16:07:54.375Z,1.13
2023-02-18T16:10:48.776Z,0.97
2023-02-18T16:13:36.827Z,0.80
2023-02-18T16:16:28.790Z,1.10
2023-02-18T16:19:26.599Z,0.80
2023-02-18T16:22:28.825Z,0.83
2023-02-18T16:25:20.375Z,0.90
2023-02-18T16:28:13.546Z,1.37
2023-02-18T16:31:00.749Z,1.20
2023-02-18T16:33:47.792Z,1.00
2023-02-18T16:36:36.380Z,1.00
2023-02-18T16:39:23.306Z,0.90
2023-02-18T16:42:11.865Z,1.00
2023-02-18T16:44:59.039Z,1.37
2023-02-18T16:47:47.654Z,1.03
2023-02-18T16:50:35.365Z,0.97
2023-02-18T16:53:23.836Z,0.93
2023-02-18T16:56:16.147Z,1.13
2023-02-18T16:59:03.374Z,1.00
2023-02-18T17:01:50.266Z,1.10
2023-02-18T17:04:37.448Z,1.00
2023-02-18T17:07:24.705Z,0.93
2023-02-18T17:10:13.958Z,1.20
2023-02-18T17:13:01.140Z,1.00
2023-02-18T17:15:50.966Z,1.50
2023-02-18T17:18:38.051Z,1.50
2023-02-18T17:21:26.589Z,1.20
2023-02-18T17:24:14.415Z,1.23
2023-02-18T17:27:02.721Z,1.30
2023-02-18T17:29:49.702Z,1.10
2023-02-18T17:32:36.617Z,1.10
2023-02-18T17:35:24.562Z,1.33
2023-02-18T17:38:12.428Z,1.40
2023-02-18T17:40:59.412Z,1.43
2023-02-18T17:43:47.964Z,1.80
2023-02-18T17:46:34.982Z,1.63
2023-02-18T17:49:22.640Z,1.17
2023-02-18T17:52:25.117Z,1.50
2023-02-18T17:55:24.111Z,1.20
2023-02-18T17:58:11.513Z,1.10
2023-02-18T18:01:00.389Z,1.40
2023-02-18T18:03:48.110Z,1.73
2023-02-18T18:06:36.174Z,1.80
2023-02-18T18:09:23.614Z,1.37
2023-02-18T18:12:10.843Z,1.40
2023-02-18T18:14:57.967Z,1.30
2023-02-18T18:17:46.396Z,1.60
2023-02-18T18:20:35.396Z,1.60
2023-02-18T18:23:23.017Z,1.30
2023-02-18T18:26:10.842Z,1.27
2023-02-18T18:28:57.555Z,1.67
2023-02-18T18:31:44.492Z,1.20
2023-02-18T18:34:33.383Z,1.50
2023-02-18T18:37:20.128Z,1.23
2023-02-18T18:40:07.746Z,1.57
2023-02-18T18:42:55.021Z,1.70
2023-02-18T18:45:42.227Z,1.60
2023-02-18T18:48:29.726Z,1.50
2023-02-18T18:51:20.230Z,1.10
2023-02-18T18:54:07.317Z,1.53
2023-02-18T18:56:55.067Z,1.30
2023-02-18T18:59:42.369Z,1.13
2023-02-18T19:02:29.378Z,1.50
2023-02-18T19:05:20.812Z,1.30
2023-02-18T19:08:10.480Z,1.10
2023-02-18T19:11:14.301Z,1.40
2023-02-18T19:14:21.268Z,1.17
2023-02-18T19:17:14.799Z,1.93
2023-02-18T19:20:02.150Z,1.37
2023-02-18T19:22:49.405Z,1.27
2023-02-18T19:25:37.812Z,1.10
2023-02-18T19:28:25.246Z,1.33
2023-02-18T19:31:12.318Z,1.30
2023-02-18T19:33:59.445Z,1.33
2023-02-18T19:36:46.716Z,1.53
2023-02-18T19:39:35.670Z,1.13
2023-02-18T19:42:24.037Z,1.80
2023-02-18T19:45:11.855Z,1.30
2023-02-18T19:48:00.388Z,1.20
2023-02-18T19:50:47.486Z,1.17
2023-02-18T19:53:34.597Z,1.40
2023-02-18T19:56:21.911Z,1.30
2023-02-18T19:59:12.752Z,1.40
2023-02-18T20:01:59.978Z,1.40
2023-02-18T20:04:47.436Z,1.40
2023-02-18T20:07:36.230Z,1.37
2023-02-18T20:10:23.715Z,1.03
2023-02-18T20:13:12.255Z,1.40
2023-02-18T20:16:00.609Z,1.20
2023-02-18T20:18:47.751Z,1.53
2023-02-18T20:21:34.896Z,1.50
2023-02-18T20:24:22.151Z,1.33
2023-02-18T20:27:10.470Z,1.17
2023-02-18T20:30:03.752Z,1.30
2023-02-18T20:32:52.144Z,1.03
2023-02-18T20:35:39.610Z,1.17
2023-02-18T20:38:26.660Z,1.23
2023-02-18T20:41:18.010Z,1.20
2023-02-18T20:44:05.361Z,1.13
2023-02-18T20:46:52.553Z,1.40
2023-02-18T20:49:41.824Z,1.20
2023-02-18T20:52:28.940Z,1.60
2023-02-18T20:55:16.252Z,1.20
2023-02-18T20:58:03.120Z,1.20
2023-02-18T21:00:57.889Z,1.30
2023-02-18T21:03:49.087Z,1.30
2023-02-18T21:06:39.944Z,1.10
2023-02-18T21:09:26.829Z,1.50
2023-02-18T21:12:13.851Z,1.30
2023-02-18T21:15:00.731Z,1.37
2023-02-18T21:17:50.399Z,1.53
2023-02-18T21:20:37.431Z,1.17
2023-02-18T21:23:25.944Z,1.60
2023-02-18T21:26:14.684Z,1.37
2023-02-18T21:29:05.254Z,1.47
2023-02-18T21:31:52.171Z,1.57
2023-02-18T21:34:39.262Z,1.20
2023-02-18T21:37:26.154Z,1.33
2023-02-18T21:40:15.557Z,1.50
2023-02-18T21:43:02.465Z,1.30
2023-02-18T21:45:49.468Z,1.37
2023-02-18T21:48:55.233Z,1.70
2023-02-18T21:52:00.766Z,1.70
2023-02-18T21:54:48.215Z,1.47
2023-02-18T21:57:36.996Z,1.60
2023-02-18T22:00:24.296Z,1.80
2023-02-18T22:03:11.534Z,1.50
2023-02-18T22:05:58.626Z,1.70
2023-02-18T22:08:45.934Z,1.27
2023-02-18T22:11:33.664Z,1.83
2023-02-18T22:14:21.892Z,1.67
2023-02-18T22:17:10.349Z,1.70
2023-02-18T22:19:57.298Z,1.67
2023-02-18T22:22:44.681Z,1.60
2023-02-18T22:25:31.457Z,1.57
2023-02-18T22:28:18.726Z,1.40
2023-02-18T22:31:10.387Z,1.50
2023-02-18T22:33:58.812Z,1.30
2023-02-18T22:36:46.459Z,1.23
2023-02-18T22:39:33.556Z,1.40
2023-02-18T22:42:23.597Z,1.60
2023-02-18T22:45:11.328Z,1.50
2023-02-18T22:48:02.088Z,1.63
2023-02-18T22:50:49.064Z,1.70
2023-02-18T22:53:36.188Z,1.43
2023-02-18T22:56:24.468Z,1.40
2023-02-18T22:59:12.550Z,1.60
2023-02-18T23:01:59.866Z,1.23
2023-02-18T23:04:48.637Z,1.43
2023-02-18T23:07:35.426Z,1.57
2023-02-18T23:10:25.455Z,1.60
2023-02-18T23:13:12.256Z,1.40
2023-02-18T23:15:59.554Z,1.60
2023-02-18T23:18:46.876Z,1.67
2023-02-18T23:21:35.358Z,1.50
2023-02-18T23:24:22.620Z,1.33
2023-02-18T23:27:11.851Z,1.60
2023-02-18T23:29:58.888Z,1.60
2023-02-18T23:32:45.996Z,1.47
2023-02-18T23:35:32.952Z,1.60
2023-02-18T23:38:21.085Z,1.80
2023-02-18T23:41:09.214Z,1.70
2023-02-18T23:43:57.304Z,1.53
2023-02-18T23:46:45.707Z,1.60
2023-02-18T23:49:32.892Z,1.30
2023-02-18T23:52:19.825Z,1.30
2023-02-18T23:55:08.635Z,1.40
2023-02-18T23:57:55.955Z,1.40
